Time;durP1;ratioP1;P1;durP2;ratioP2;P2;SDS_P1;SDS_P2;PMS_P1;PMS_P2;Temp;Humidity;BMP_temperature;BMP_pressure;BME280_temperature;BME280_humidity;BME280_pressure;Samples;Min_cycle;Max_cycle;Signal;HPM_P1;HPM_P2
2022/01/08 00:01:59;;;;;;;24.70;14.10;;;2.30;99.90;;;;;;5023330;28;20330;-66
2022/01/08 00:04:25;;;;;;;21.13;11.23;;;2.30;99.90;;;;;;5025610;28;20193;-65
2022/01/08 00:06:51;;;;;;;17.67;9.97;;;2.20;99.90;;;;;;5028916;28;20207;-66
2022/01/08 00:09:16;;;;;;;14.77;9.63;;;2.20;99.90;;;;;;5026887;28;20201;-64
2022/01/08 00:11:42;;;;;;;16.17;10.13;;;2.20;99.90;;;;;;5027896;28;20192;-65
2022/01/08 00:14:10;;;;;;;16.40;10.67;;;2.30;99.90;;;;;;5025726;28;20185;-66
2022/01/08 00:16:37;;;;;;;18.33;10.07;;;2.30;99.90;;;;;;5026517;28;20204;-65
2022/01/08 00:19:04;;;;;;;16.50;9.63;;;2.30;99.90;;;;;;5030997;28;20169;-68
2022/01/08 00:21:30;;;;;;;16.20;9.67;;;2.50;99.90;;;;;;5030326;28;20216;-65
2022/01/08 00:23:55;;;;;;;14.83;9.60;;;2.50;99.90;;;;;;5030958;28;20379;-64
2022/01/08 00:26:21;;;;;;;16.50;10.07;;;2.50;99.90;;;;;;5027782;28;20613;-66
2022/01/08 00:28:46;;;;;;;17.87;10.33;;;2.50;99.90;;;;;;5025231;28;20201;-64
2022/01/08 00:31:12;;;;;;;15.37;10.03;;;2.60;99.90;;;;;;5027377;28;20543;-65
2022/01/08 00:33:39;;;;;;;16.03;9.47;;;2.60;99.90;;;;;;5022678;28;20236;-63
2022/01/08 00:36:05;;;;;;;15.20;8.87;;;2.50;99.90;;;;;;5026235;28;20197;-64
2022/01/08 00:38:31;;;;;;;12.40;7.83;;;2.50;99.90;;;;;;5025625;28;20185;-68
2022/01/08 00:40:57;;;;;;;15.87;8.70;;;2.50;99.90;;;;;;5024725;28;20261;-64
2022/01/08 00:43:22;;;;;;;13.40;8.27;;;2.60;99.90;;;;;;5023174;28;20284;-65
2022/01/08 00:45:48;;;;;;;14.20;8.60;;;2.40;99.90;;;;;;5021267;28;20239;-65
2022/01/08 00:48:14;;;;;;;12.97;8.43;;;2.50;99.90;;;;;;5022625;28;20633;-65
2022/01/08 00:50:39;;;;;;;15.07;9.07;;;2.60;99.90;;;;;;5029367;28;20644;-65
2022/01/08 00:53:05;;;;;;;16.07;8.63;;;2.50;99.90;;;;;;5022492;28;20277;-66
2022/01/08 00:55:31;;;;;;;16.27;8.80;;;2.40;99.90;;;;;;5021836;28;20201;-65
2022/01/08 00:57:57;;;;;;;14.70;8.43;;;2.50;99.90;;;;;;5021673;28;20177;-64
2022/01/08 01:00:23;;;;;;;13.57;8.47;;;2.40;99.90;;;;;;5019559;28;21825;-65
2022/01/08 01:02:49;;;;;;;15.03;8.10;;;2.50;99.90;;;;;;5016546;28;20213;-65
2022/01/08 01:05:15;;;;;;;15.90;9.23;;;2.50;99.90;;;;;;5021883;28;20234;-64
2022/01/08 01:07:41;;;;;;;13.47;8.20;;;2.50;99.90;;;;;;5025703;28;20186;-64
2022/01/08 01:10:08;;;;;;;16.70;9.73;;;2.60;99.90;;;;;;5024326;28;20663;-67
2022/01/08 01:12:34;;;;;;;17.67;10.20;;;2.50;99.90;;;;;;5019995;28;20216;-65
2022/01/08 01:15:00;;;;;;;16.57;9.60;;;2.40;99.90;;;;;;5022798;28;20252;-67
2022/01/08 01:17:25;;;;;;;13.40;8.80;;;2.50;99.90;;;;;;5023272;28;20197;-64
2022/01/08 01:19:51;;;;;;;13.97;7.93;;;2.50;99.90;;;;;;5021190;28;20200;-63
2022/01/08 01:22:20;;;;;;;20.37;11.03;;;2.50;99.90;;;;;;5015966;28;20236;-63
2022/01/08 01:24:47;;;;;;;13.17;8.53;;;2.40;99.90;;;;;;5016397;28;20258;-66
2022/01/08 01:27:51;;;;;;;12.00;7.63;;;2.50;99.90;;;;;;5020134;28;20282;-64
2022/01/08 01:30:14;;;;;;;15.43;8.17;;;2.60;99.90;;;;;;5018748;28;20221;-63
2022/01/08 01:41:22;;;;;;;13.77;7.50;;;2.50;99.90;;;;;;5019732;28;20337;-66
2022/01/08 01:49:07;;;;;;;13.27;7.27;;;2.40;99.90;;;;;;5024065;28;20557;-64
2022/01/08 01:51:33;;;;;;;11.37;6.97;;;2.40;99.90;;;;;;5025907;28;20631;-64
2022/01/08 01:53:59;;;;;;;12.70;6.80;;;2.50;99.90;;;;;;5017150;28;20188;-68
2022/01/08 01:56:25;;;;;;;10.10;6.63;;;2.40;99.90;;;;;;5021394;28;20252;-64
2022/01/08 01:58:51;;;;;;;9.83;5.80;;;2.40;99.90;;;;;;5020159;28;20216;-64
2022/01/08 02:01:17;;;;;;;9.40;5.93;;;2.30;99.90;;;;;;5018513;28;20193;-64
2022/01/08 02:03:43;;;;;;;9.40;6.40;;;2.30;99.90;;;;;;5019739;28;20187;-64
2022/01/08 02:06:09;;;;;;;9.60;6.07;;;2.30;99.90;;;;;;5020170;28;20287;-64
2022/01/08 02:08:37;;;;;;;10.10;5.70;;;2.20;99.90;;;;;;5021181;28;20192;-64
2022/01/08 02:11:04;;;;;;;8.67;5.83;;;2.30;99.90;;;;;;5015217;28;20189;-64
2022/01/08 02:13:29;;;;;;;8.13;5.40;;;2.30;99.90;;;;;;5023326;28;20194;-66
2022/01/08 02:15:57;;;;;;;8.60;5.80;;;2.30;99.90;;;;;;5022013;28;20220;-66
2022/01/08 02:18:27;;;;;;;9.13;5.03;;;2.30;99.90;;;;;;5022421;28;22242;-64
2022/01/08 02:20:58;;;;;;;8.53;5.60;;;2.30;99.90;;;;;;5022277;28;20216;-63
2022/01/08 02:23:24;;;;;;;7.90;5.20;;;2.30;99.90;;;;;;5021157;28;20220;-68
2022/01/08 02:25:51;;;;;;;7.73;5.00;;;2.30;99.90;;;;;;5018529;28;20189;-65
2022/01/08 02:28:17;;;;;;;6.30;4.20;;;2.30;99.90;;;;;;5015620;28;20223;-66
2022/01/08 02:30:43;;;;;;;5.60;4.40;;;2.20;99.90;;;;;;5020286;28;20279;-65
2022/01/08 02:33:09;;;;;;;6.70;4.70;;;2.30;99.90;;;;;;5019964;28;20212;-64
2022/01/08 02:35:35;;;;;;;8.50;4.83;;;2.30;99.90;;;;;;5022185;28;20194;-65
2022/01/08 02:38:01;;;;;;;7.40;4.73;;;2.30;99.90;;;;;;5022273;28;20269;-65
2022/01/08 02:40:27;;;;;;;7.43;4.97;;;2.30;99.90;;;;;;5021864;28;20193;-66
2022/01/08 02:43:00;;;;;;;5.70;4.30;;;2.30;99.90;;;;;;5024121;28;20213;-64
2022/01/08 02:45:27;;;;;;;6.77;4.57;;;2.30;99.90;;;;;;5028587;28;20181;-67
2022/01/08 02:47:54;;;;;;;6.00;4.60;;;2.30;99.90;;;;;;5023327;28;20260;-64
2022/01/08 02:50:20;;;;;;;8.17;5.27;;;2.20;99.90;;;;;;5014069;28;20647;-69
2022/01/08 02:52:46;;;;;;;6.90;5.07;;;2.30;99.90;;;;;;5014263;28;20823;-64
2022/01/08 02:55:18;;;;;;;8.03;5.30;;;2.20;99.90;;;;;;5017176;28;21094;-64
2022/01/08 02:57:44;;;;;;;7.27;4.53;;;2.10;99.90;;;;;;5017370;28;20189;-67
2022/01/08 03:00:14;;;;;;;8.07;5.57;;;2.10;99.90;;;;;;5024744;28;20196;-66
2022/01/08 03:02:45;;;;;;;8.27;4.90;;;2.00;99.90;;;;;;5026389;28;20218;-65
2022/01/08 03:05:11;;;;;;;6.67;4.70;;;2.00;99.90;;;;;;5029373;28;20739;-63
2022/01/08 03:07:39;;;;;;;9.53;5.63;;;1.90;99.90;;;;;;5026664;28;20186;-65
2022/01/08 03:10:06;;;;;;;7.43;5.23;;;1.90;99.90;;;;;;5025927;28;20182;-65
2022/01/08 03:12:32;;;;;;;8.03;5.27;;;1.80;99.90;;;;;;5021467;28;20201;-63
2022/01/08 03:14:58;;;;;;;8.60;5.13;;;1.90;99.90;;;;;;5019055;28;20659;-64
2022/01/08 03:17:24;;;;;;;9.23;5.37;;;1.90;99.90;;;;;;5017123;28;20189;-63
2022/01/08 03:19:52;;;;;;;8.33;5.53;;;1.90;99.90;;;;;;5015120;28;20185;-69
2022/01/08 03:22:19;;;;;;;7.87;5.67;;;1.80;99.90;;;;;;5021659;28;20216;-69
2022/01/08 03:24:45;;;;;;;9.50;5.37;;;1.80;99.90;;;;;;5017722;28;20204;-64
2022/01/08 03:27:11;;;;;;;8.53;5.70;;;1.80;99.90;;;;;;5017922;28;20200;-65
2022/01/08 03:29:37;;;;;;;7.83;5.10;;;1.80;99.90;;;;;;5016952;28;20272;-65
2022/01/08 03:32:02;;;;;;;6.10;4.97;;;1.70;99.90;;;;;;5016973;28;20394;-63
2022/01/08 03:34:28;;;;;;;7.13;5.10;;;1.60;99.90;;;;;;5020030;28;20282;-64
2022/01/08 03:36:54;;;;;;;11.77;5.67;;;1.60;99.90;;;;;;5016837;28;20197;-64
2022/01/08 03:39:21;;;;;;;8.83;5.50;;;1.60;99.90;;;;;;5019113;28;20715;-65
2022/01/08 03:41:46;;;;;;;9.23;5.50;;;1.60;99.90;;;;;;5016265;28;20210;-65
2022/01/08 03:44:12;;;;;;;7.30;5.30;;;1.60;99.90;;;;;;5016940;28;20201;-63
2022/01/08 03:46:38;;;;;;;6.93;4.70;;;1.60;99.90;;;;;;5018066;28;20173;-66
2022/01/08 03:51:31;;;;;;;8.90;5.73;;;1.70;99.90;;;;;;5017964;28;20755;-66
2022/01/08 03:53:57;;;;;;;9.10;5.50;;;1.60;99.90;;;;;;5015979;28;20185;-64
2022/01/08 03:56:24;;;;;;;8.43;5.57;;;1.70;99.90;;;;;;5017588;28;20653;-65
2022/01/08 03:58:50;;;;;;;9.60;6.03;;;1.70;99.90;;;;;;5019546;28;20191;-63
2022/01/08 04:01:15;;;;;;;9.13;6.10;;;1.80;99.90;;;;;;5021201;28;20287;-63
2022/01/08 04:03:41;;;;;;;9.07;5.50;;;1.70;99.90;;;;;;5022252;28;20430;-65
2022/01/08 04:06:07;;;;;;;10.77;5.83;;;1.80;99.90;;;;;;5021105;28;20558;-71
2022/01/08 04:08:33;;;;;;;8.90;5.67;;;1.80;99.90;;;;;;5022228;28;20194;-64
2022/01/08 04:10:58;;;;;;;8.10;5.47;;;1.80;99.90;;;;;;5019217;28;20597;-64
2022/01/08 04:13:30;;;;;;;8.60;6.00;;;1.80;99.90;;;;;;5016474;28;20189;-64
2022/01/08 04:16:00;;;;;;;10.17;6.00;;;1.90;99.90;;;;;;5016861;28;20195;-64
2022/01/08 04:18:26;;;;;;;7.67;5.60;;;1.90;99.90;;;;;;5016081;28;20185;-69
2022/01/08 04:21:20;;;;;;;8.50;5.77;;;1.90;99.90;;;;;;5024496;28;20197;-65
2022/01/08 04:23:43;;;;;;;8.40;5.47;;;2.00;99.90;;;;;;5017570;28;20292;-65
2022/01/08 04:26:09;;;;;;;6.70;4.60;;;2.10;99.90;;;;;;5021713;28;20181;-67
2022/01/08 04:28:35;;;;;;;7.73;5.07;;;2.10;99.90;;;;;;5016860;28;20657;-64
2022/01/08 04:31:00;;;;;;;6.37;4.57;;;2.10;99.90;;;;;;5017685;28;20199;-69
2022/01/08 04:33:26;;;;;;;6.60;4.80;;;2.20;99.90;;;;;;5018689;28;20247;-64
2022/01/08 04:35:52;;;;;;;9.80;6.17;;;2.20;99.90;;;;;;5022253;28;20204;-66
2022/01/08 04:38:17;;;;;;;9.20;5.73;;;2.10;99.90;;;;;;5020227;28;20228;-63
2022/01/08 04:40:43;;;;;;;9.57;5.83;;;2.10;99.90;;;;;;5018175;28;20189;-68
2022/01/08 04:43:09;;;;;;;7.90;5.67;;;2.10;99.90;;;;;;5016001;28;20220;-64
2022/01/08 04:45:34;;;;;;;9.43;6.17;;;2.00;99.90;;;;;;5014983;28;20266;-65
2022/01/08 04:48:01;;;;;;;8.70;5.57;;;2.10;99.90;;;;;;5015727;28;20204;-66
2022/01/08 04:50:28;;;;;;;10.40;5.80;;;2.10;99.90;;;;;;5019335;28;20200;-65
2022/01/08 04:52:56;;;;;;;9.50;5.43;;;2.10;99.90;;;;;;5016579;28;20256;-67
2022/01/08 04:55:22;;;;;;;9.57;6.07;;;2.10;99.90;;;;;;5016077;28;20193;-66
2022/01/08 04:57:48;;;;;;;9.77;5.80;;;2.10;99.90;;;;;;5016574;28;20213;-64
2022/01/08 05:00:16;;;;;;;7.97;5.63;;;2.20;99.90;;;;;;5016224;28;20277;-67
2022/01/08 05:02:42;;;;;;;7.63;5.30;;;2.10;99.90;;;;;;5014108;28;20240;-64
2022/01/08 05:05:09;;;;;;;7.40;5.03;;;2.10;99.90;;;;;;5015490;28;20285;-65
2022/01/08 05:07:35;;;;;;;11.27;6.60;;;2.10;99.90;;;;;;5021009;28;20196;-63
2022/01/08 05:10:00;;;;;;;8.33;5.50;;;2.10;99.90;;;;;;5019902;28;20535;-66
2022/01/08 05:12:26;;;;;;;10.07;5.93;;;2.10;99.90;;;;;;5017120;28;20209;-68
2022/01/08 05:14:52;;;;;;;7.57;5.37;;;2.10;99.90;;;;;;5018310;28;20198;-68
2022/01/08 05:17:18;;;;;;;9.03;5.67;;;2.20;99.90;;;;;;5021462;28;20853;-65
2022/01/08 05:19:50;;;;;;;9.37;5.83;;;2.10;99.90;;;;;;5015988;28;20240;-64
2022/01/08 05:22:31;;;;;;;7.83;5.37;;;2.20;99.90;;;;;;5021787;28;20261;-64
2022/01/08 05:24:57;;;;;;;8.37;6.30;;;2.20;99.90;;;;;;5019494;28;20184;-64
2022/01/08 05:27:24;;;;;;;9.90;6.30;;;2.10;99.90;;;;;;5020069;28;20200;-67
2022/01/08 05:29:52;;;;;;;10.13;6.30;;;2.10;99.90;;;;;;5019774;28;20196;-67
2022/01/08 05:32:18;;;;;;;8.53;5.77;;;2.10;99.90;;;;;;5021974;28;20204;-64
2022/01/08 05:34:46;;;;;;;10.03;5.90;;;2.10;99.90;;;;;;5019991;28;20350;-63
2022/01/08 05:37:12;;;;;;;9.20;5.90;;;2.10;99.90;;;;;;5021500;28;20224;-63
2022/01/08 05:39:38;;;;;;;12.17;6.43;;;2.20;99.90;;;;;;5021449;28;20588;-67
2022/01/08 05:42:04;;;;;;;8.50;5.30;;;2.20;99.90;;;;;;5023399;28;20212;-64
2022/01/08 05:44:30;;;;;;;7.63;5.03;;;2.20;99.90;;;;;;5035314;28;20197;-64
2022/01/08 05:46:56;;;;;;;8.20;5.50;;;2.20;99.90;;;;;;5027943;28;20258;-65
2022/01/08 05:49:22;;;;;;;9.37;5.30;;;2.30;99.90;;;;;;5026367;28;20217;-68
2022/01/08 05:51:47;;;;;;;7.63;5.27;;;2.20;99.90;;;;;;5028946;28;20251;-65
2022/01/08 05:54:13;;;;;;;10.47;6.13;;;2.30;99.90;;;;;;5029348;28;20192;-64
2022/01/08 05:56:39;;;;;;;7.77;5.17;;;2.30;99.90;;;;;;5021405;28;21144;-65
2022/01/08 05:59:05;;;;;;;7.60;5.00;;;2.30;99.90;;;;;;5019743;28;20764;-65
2022/01/08 06:01:33;;;;;;;7.87;5.10;;;2.30;99.90;;;;;;5020555;28;20198;-68
2022/01/08 06:03:59;;;;;;;8.03;5.33;;;2.30;99.90;;;;;;5018472;28;20185;-67
2022/01/08 06:06:25;;;;;;;7.40;5.10;;;2.30;99.90;;;;;;5019810;28;20553;-63
2022/01/08 06:08:51;;;;;;;6.77;4.50;;;2.40;99.90;;;;;;5018869;28;20268;-63
2022/01/08 06:11:16;;;;;;;7.00;4.67;;;2.40;99.90;;;;;;5021272;28;20687;-64
2022/01/08 06:13:42;;;;;;;6.17;4.17;;;2.40;99.90;;;;;;5021234;28;20632;-63
2022/01/08 06:16:08;;;;;;;6.33;4.47;;;2.40;99.90;;;;;;5020473;28;20598;-64
2022/01/08 06:18:34;;;;;;;5.93;4.27;;;2.30;99.90;;;;;;5017961;28;20231;-66
2022/01/08 06:24:22;;;;;;;7.60;5.10;;;2.30;99.90;;;;;;5029381;28;20231;-67
2022/01/08 06:30:10;;;;;;;8.27;5.40;;;2.40;99.90;;;;;;5022976;28;20231;-64
2022/01/08 06:32:35;;;;;;;8.73;5.90;;;2.40;99.90;;;;;;5021226;28;20305;-64
2022/01/08 06:35:01;;;;;;;12.73;6.70;;;2.40;99.90;;;;;;5019071;28;20239;-66
2022/01/08 06:37:27;;;;;;;9.00;5.63;;;2.40;99.90;;;;;;5022001;28;20796;-63
2022/01/08 06:39:54;;;;;;;9.33;5.83;;;2.40;99.90;;;;;;5020620;28;20188;-65
2022/01/08 06:42:20;;;;;;;9.57;5.80;;;2.50;99.90;;;;;;5019718;28;20774;-66
2022/01/08 06:44:46;;;;;;;11.97;6.13;;;2.50;99.90;;;;;;5017895;28;20197;-65
2022/01/08 06:47:11;;;;;;;10.87;7.13;;;2.60;99.90;;;;;;5019803;28;20252;-66
2022/01/08 06:49:37;;;;;;;7.60;5.03;;;2.50;99.90;;;;;;5019086;28;20185;-66
2022/01/08 06:52:03;;;;;;;10.40;6.23;;;2.60;99.90;;;;;;5021403;28;20220;-68
2022/01/08 06:54:28;;;;;;;13.03;6.40;;;2.60;99.90;;;;;;5022407;28;20191;-66
2022/01/08 06:56:54;;;;;;;8.70;6.20;;;2.70;99.90;;;;;;5019936;28;20197;-64
2022/01/08 06:59:20;;;;;;;8.50;5.37;;;2.70;99.90;;;;;;5023134;28;20188;-64
2022/01/08 07:01:45;;;;;;;8.17;5.70;;;2.70;99.90;;;;;;5020303;28;20228;-70
2022/01/08 07:04:11;;;;;;;9.60;6.40;;;2.80;99.90;;;;;;5022506;28;20227;-64
2022/01/08 07:06:37;;;;;;;10.17;6.70;;;2.80;99.90;;;;;;5022408;28;20223;-65
2022/01/08 07:09:03;;;;;;;10.37;6.30;;;2.80;99.90;;;;;;5022352;28;20190;-65
2022/01/08 07:11:29;;;;;;;8.77;5.90;;;2.80;99.90;;;;;;5022236;28;20230;-64
2022/01/08 07:13:54;;;;;;;12.70;5.70;;;2.70;99.90;;;;;;5023138;28;20643;-65
2022/01/08 07:16:20;;;;;;;8.07;5.73;;;2.80;99.90;;;;;;5021345;28;20530;-65
2022/01/08 07:18:46;;;;;;;8.83;5.93;;;2.80;99.90;;;;;;5023903;28;20188;-64
2022/01/08 07:21:11;;;;;;;10.10;6.47;;;2.80;99.90;;;;;;5031255;28;20270;-66
2022/01/08 07:23:38;;;;;;;10.40;6.93;;;2.80;99.90;;;;;;5024394;28;20216;-63
2022/01/08 07:26:04;;;;;;;8.07;5.67;;;2.80;99.90;;;;;;5022339;28;20548;-63
2022/01/08 07:28:29;;;;;;;8.83;5.70;;;2.80;99.90;;;;;;5023670;28;20325;-63
2022/01/08 07:30:55;;;;;;;9.20;5.50;;;2.90;99.90;;;;;;5022665;28;20193;-64
2022/01/08 07:33:21;;;;;;;8.87;4.80;;;2.80;99.90;;;;;;5023608;28;20244;-63
2022/01/08 07:35:46;;;;;;;7.47;5.47;;;3.00;99.90;;;;;;5030670;28;20242;-63
2022/01/08 07:38:12;;;;;;;9.10;5.87;;;2.90;99.90;;;;;;5027757;28;20641;-68
2022/01/08 07:40:38;;;;;;;5.03;4.10;;;2.90;99.90;;;;;;5029305;28;20636;-64
2022/01/08 07:43:04;;;;;;;9.13;5.63;;;3.00;99.90;;;;;;5022906;28;20227;-65
2022/01/08 07:45:30;;;;;;;8.13;5.13;;;3.10;99.90;;;;;;5022251;28;20185;-63
2022/01/08 07:47:56;;;;;;;11.67;6.90;;;3.00;99.90;;;;;;5022206;28;20259;-65
2022/01/08 07:50:22;;;;;;;14.43;7.87;;;3.10;99.90;;;;;;5022392;28;20201;-63
2022/01/08 07:52:47;;;;;;;14.03;7.53;;;3.10;99.90;;;;;;5022261;28;20321;-64
2022/01/08 07:55:14;;;;;;;11.63;6.53;;;3.10;99.90;;;;;;5023203;28;20226;-63
2022/01/08 07:57:40;;;;;;;11.77;6.70;;;3.20;99.90;;;;;;5023492;28;20243;-64
2022/01/08 08:00:06;;;;;;;10.77;6.77;;;3.20;99.90;;;;;;5020516;28;20193;-64
2022/01/08 08:02:32;;;;;;;10.00;5.90;;;3.10;99.90;;;;;;5020769;28;20225;-65
2022/01/08 08:04:57;;;;;;;9.20;6.63;;;3.20;99.90;;;;;;5020934;28;20192;-65
2022/01/08 08:07:31;;;;;;;11.23;7.23;;;3.20;99.90;;;;;;5020845;28;20516;-65
2022/01/08 08:09:57;;;;;;;10.67;7.40;;;3.10;99.90;;;;;;5018828;28;20185;-65
2022/01/08 08:12:23;;;;;;;9.53;5.33;;;3.10;99.90;;;;;;5019704;28;20249;-69
2022/01/08 08:14:49;;;;;;;11.27;6.47;;;3.10;99.90;;;;;;5021847;28;20188;-65
2022/01/08 08:17:14;;;;;;;12.53;7.13;;;2.90;99.90;;;;;;5020258;28;20200;-66
2022/01/08 08:19:40;;;;;;;9.43;6.47;;;2.80;99.90;;;;;;5022031;28;20200;-66
2022/01/08 08:22:06;;;;;;;11.93;7.60;;;2.70;99.90;;;;;;5026389;28;20303;-65
2022/01/08 08:24:31;;;;;;;8.87;6.57;;;2.70;99.90;;;;;;5025680;28;20196;-63
2022/01/08 08:26:57;;;;;;;10.90;7.00;;;2.70;99.90;;;;;;5020531;28;20803;-67
2022/01/08 08:29:22;;;;;;;7.27;5.40;;;2.80;99.90;;;;;;5024282;28;20185;-65
2022/01/08 08:31:48;;;;;;;9.30;6.37;;;2.80;99.90;;;;;;5024472;28;20225;-68
2022/01/08 08:34:14;;;;;;;11.63;7.60;;;2.80;99.90;;;;;;5023973;28;20774;-64
2022/01/08 08:36:39;;;;;;;7.90;6.07;;;2.80;99.90;;;;;;5025114;28;20212;-71
2022/01/08 08:39:05;;;;;;;9.23;6.20;;;2.80;99.90;;;;;;5024080;28;20225;-64
2022/01/08 08:41:30;;;;;;;10.23;7.17;;;2.90;99.90;;;;;;5026380;28;20197;-66
2022/01/08 08:43:56;;;;;;;8.13;6.43;;;2.70;99.90;;;;;;5024788;28;20673;-69
2022/01/08 08:46:24;;;;;;;8.63;5.37;;;2.70;99.90;;;;;;5022990;28;20209;-64
2022/01/08 08:48:49;;;;;;;10.67;7.17;;;2.80;99.90;;;;;;5024735;28;20256;-65
2022/01/08 08:51:15;;;;;;;11.13;7.27;;;2.80;99.90;;;;;;5020882;28;20663;-64
2022/01/08 08:53:41;;;;;;;14.77;9.30;;;2.80;99.90;;;;;;5020887;28;20580;-66
2022/01/08 08:56:07;;;;;;;14.00;7.73;;;2.80;99.90;;;;;;5020395;28;20195;-66
2022/01/08 08:58:33;;;;;;;10.83;7.10;;;2.70;99.90;;;;;;5024764;28;20237;-64
2022/01/08 09:00:58;;;;;;;10.37;6.70;;;2.70;99.90;;;;;;5022767;28;20224;-66
2022/01/08 09:03:24;;;;;;;10.63;6.83;;;2.70;99.90;;;;;;5024592;28;20218;-64
2022/01/08 09:05:50;;;;;;;12.40;7.90;;;2.70;99.90;;;;;;5025508;28;20208;-66
2022/01/08 09:08:15;;;;;;;11.73;6.57;;;2.80;99.90;;;;;;5027593;28;20193;-64
2022/01/08 09:10:41;;;;;;;13.53;7.57;;;2.90;99.90;;;;;;5024425;28;20193;-68
2022/01/08 09:13:07;;;;;;;14.13;9.20;;;2.90;99.90;;;;;;5022858;28;20654;-64
2022/01/08 09:15:36;;;;;;;13.00;9.40;;;3.00;99.90;;;;;;5023911;28;20632;-65
2022/01/08 09:18:02;;;;;;;11.77;8.30;;;3.00;99.90;;;;;;5022645;28;20263;-65
2022/01/08 09:20:30;;;;;;;11.57;7.63;;;2.90;99.90;;;;;;5023038;28;20681;-65
2022/01/08 09:22:56;;;;;;;10.27;6.73;;;2.90;99.90;;;;;;5024823;28;20312;-65
2022/01/08 09:25:22;;;;;;;10.13;7.13;;;2.90;99.90;;;;;;5025384;28;20264;-63
2022/01/08 09:27:48;;;;;;;7.97;5.23;;;2.90;99.90;;;;;;5024635;28;20277;-65
2022/01/08 09:30:14;;;;;;;13.00;7.53;;;2.90;99.90;;;;;;5019377;28;20192;-63
2022/01/08 09:32:43;;;;;;;12.23;8.17;;;2.90;99.90;;;;;;5023356;28;20193;-63
2022/01/08 09:35:09;;;;;;;9.53;7.03;;;2.80;99.90;;;;;;5025068;28;20233;-64
2022/01/08 09:37:37;;;;;;;9.40;5.93;;;2.90;99.90;;;;;;5024061;28;20199;-63
2022/01/08 09:40:04;;;;;;;10.10;6.23;;;3.00;99.90;;;;;;5022554;28;20525;-64
2022/01/08 09:42:30;;;;;;;10.03;6.70;;;2.90;99.90;;;;;;5025264;28;21523;-67
2022/01/08 09:44:56;;;;;;;9.87;6.57;;;2.80;99.90;;;;;;5023050;28;20192;-65
2022/01/08 09:47:21;;;;;;;10.97;7.13;;;2.80;99.90;;;;;;5022968;28;20304;-64
2022/01/08 09:49:48;;;;;;;8.90;6.30;;;2.80;99.90;;;;;;5020646;28;20196;-65
2022/01/08 09:52:17;;;;;;;10.13;5.43;;;2.80;99.90;;;;;;5022091;28;20185;-68
2022/01/08 09:54:43;;;;;;;12.47;7.83;;;3.10;99.90;;;;;;5022120;28;20225;-64
2022/01/08 09:57:10;;;;;;;12.07;7.43;;;3.60;99.90;;;;;;5023213;28;20222;-63
2022/01/08 09:59:36;;;;;;;7.93;5.47;;;3.30;99.90;;;;;;5024145;28;20203;-65
2022/01/08 10:02:02;;;;;;;12.83;8.63;;;3.10;99.90;;;;;;5020540;28;20787;-63
2022/01/08 10:04:36;;;;;;;9.37;5.97;;;3.00;99.90;;;;;;5024858;28;20271;-67
2022/01/08 10:07:18;;;;;;;10.03;6.00;;;2.90;99.90;;;;;;5031367;28;20269;-69
2022/01/08 10:09:58;;;;;;;14.80;8.85;;;3.00;99.90;;;;;;5019446;28;20770;-64
2022/01/08 10:12:43;;;;;;;11.17;6.40;;;3.00;99.90;;;;;;5021243;28;20311;-66
2022/01/08 10:17:55;;;;;;;10.93;6.97;;;3.10;99.90;;;;;;5025352;28;20185;-62
2022/01/08 10:20:39;;;;;;;12.83;8.30;;;3.00;99.90;;;;;;5027863;28;20185;-64
2022/01/08 10:23:18;;;;;;;13.97;8.50;;;3.20;99.90;;;;;;5029358;28;20219;-63
2022/01/08 10:25:58;;;;;;;15.07;8.93;;;3.10;99.90;;;;;;5025453;28;20213;-66
2022/01/08 10:28:35;;;;;;;18.27;9.90;;;3.10;99.90;;;;;;5022364;28;20599;-65
2022/01/08 10:31:11;;;;;;;13.00;8.40;;;3.20;99.90;;;;;;5026817;28;20189;-65
2022/01/08 10:33:40;;;;;;;12.67;7.90;;;3.20;99.90;;;;;;5026897;28;20238;-63
2022/01/08 10:36:06;;;;;;;13.93;8.93;;;3.10;99.90;;;;;;5008236;28;20277;-67
2022/01/08 10:38:35;;;;;;;11.97;8.40;;;3.10;99.90;;;;;;5023581;28;20308;-63
2022/01/08 10:41:11;;;;;;;9.63;6.50;;;3.10;99.90;;;;;;5022622;28;20833;-64
2022/01/08 10:43:37;;;;;;;14.43;7.60;;;3.10;99.90;;;;;;5023526;28;20213;-65
2022/01/08 10:46:18;;;;;;;18.90;10.30;;;3.10;99.90;;;;;;5023962;28;20320;-64
2022/01/08 10:48:50;;;;;;;15.53;10.00;;;3.10;99.90;;;;;;5022725;28;20175;-64
2022/01/08 10:51:16;;;;;;;13.33;7.80;;;3.10;99.90;;;;;;5024397;28;21004;-66
2022/01/08 10:53:56;;;;;;;13.03;8.60;;;3.10;99.90;;;;;;5028462;28;20196;-64
2022/01/08 10:56:23;;;;;;;17.30;9.93;;;3.20;99.90;;;;;;5031033;28;20272;-64
2022/01/08 10:58:52;;;;;;;14.27;9.30;;;3.10;99.90;;;;;;5032554;28;20204;-65
2022/01/08 11:01:38;;;;;;;23.00;14.23;;;3.20;99.90;;;;;;5034476;28;20204;-63
2022/01/08 11:04:06;;;;;;;18.80;11.93;;;3.30;99.90;;;;;;5023486;28;20212;-63
2022/01/08 11:06:32;;;;;;;15.17;9.10;;;3.30;99.90;;;;;;5023560;28;20324;-63
2022/01/08 11:09:00;;;;;;;12.67;7.50;;;3.10;99.90;;;;;;5021914;28;20609;-63
2022/01/08 11:11:31;;;;;;;18.57;10.43;;;3.10;99.90;;;;;;5024209;28;20193;-64
2022/01/08 11:14:07;;;;;;;15.10;10.50;;;3.20;99.90;;;;;;5021460;28;20506;-65
2022/01/08 11:16:35;;;;;;;13.80;9.57;;;3.00;99.90;;;;;;5025479;28;20190;-64
2022/01/08 11:19:03;;;;;;;11.87;8.77;;;3.20;99.90;;;;;;5024425;28;20231;-65
2022/01/08 11:21:31;;;;;;;12.50;7.70;;;3.10;99.90;;;;;;5023876;28;20191;-63
2022/01/08 11:24:01;;;;;;;13.87;10.07;;;2.90;99.90;;;;;;5024633;28;20227;-63
2022/01/08 11:26:28;;;;;;;12.87;9.33;;;2.90;99.90;;;;;;5022591;28;20601;-65
2022/01/08 11:28:59;;;;;;;14.50;9.87;;;2.90;99.90;;;;;;5020945;28;20605;-65
2022/01/08 11:31:32;;;;;;;15.87;9.87;;;2.90;99.90;;;;;;5022867;28;20220;-64
2022/01/08 11:34:05;;;;;;;22.83;10.47;;;2.90;99.90;;;;;;5023312;28;20220;-63
2022/01/08 11:36:31;;;;;;;17.67;9.93;;;2.90;99.90;;;;;;5022604;28;20182;-66
2022/01/08 11:38:57;;;;;;;16.07;10.17;;;3.00;99.90;;;;;;5021166;28;20268;-64
2022/01/08 11:41:24;;;;;;;16.00;8.23;;;2.90;99.90;;;;;;5021436;28;20180;-64
2022/01/08 11:43:50;;;;;;;15.17;9.70;;;2.90;99.90;;;;;;5019798;28;20216;-65
2022/01/08 11:46:17;;;;;;;15.63;9.77;;;2.80;99.90;;;;;;5018907;28;20591;-64
2022/01/08 11:48:45;;;;;;;16.80;11.13;;;2.90;99.90;;;;;;5017288;28;20196;-68
2022/01/08 11:51:24;;;;;;;18.10;11.47;;;2.90;99.90;;;;;;5015828;28;21927;-63
2022/01/08 11:53:57;;;;;;;14.33;9.77;;;2.90;99.90;;;;;;5020697;28;20195;-63
2022/01/08 11:56:39;;;;;;;15.80;10.07;;;2.80;99.90;;;;;;5021575;28;20189;-66
2022/01/08 11:59:09;;;;;;;14.90;9.67;;;2.80;99.90;;;;;;5022406;28;20181;-64
2022/01/08 12:01:36;;;;;;;13.37;9.53;;;2.60;99.90;;;;;;5019963;28;20200;-66
2022/01/08 12:04:03;;;;;;;14.50;9.97;;;2.60;99.90;;;;;;5014321;28;20601;-64
2022/01/08 12:06:32;;;;;;;15.37;10.00;;;2.70;99.90;;;;;;5002375;28;20209;-65
2022/01/08 12:09:07;;;;;;;16.03;10.33;;;2.50;99.90;;;;;;5017220;28;20267;-64
2022/01/08 12:11:56;;;;;;;15.57;10.47;;;2.50;99.90;;;;;;5019742;28;20188;-63
2022/01/08 12:14:28;;;;;;;19.67;12.33;;;2.50;99.90;;;;;;5017093;28;20205;-64
2022/01/08 12:16:58;;;;;;;20.20;12.57;;;2.40;99.90;;;;;;5016086;28;20194;-62
2022/01/08 12:19:40;;;;;;;19.63;12.43;;;2.60;99.90;;;;;;5017546;28;20189;-62
2022/01/08 12:22:20;;;;;;;16.93;10.53;;;2.50;99.90;;;;;;5017597;28;20548;-63
2022/01/08 12:24:53;;;;;;;14.43;9.97;;;2.30;99.90;;;;;;5018216;28;20272;-65
2022/01/08 12:27:34;;;;;;;17.90;11.50;;;2.30;99.90;;;;;;5016345;28;20801;-63
2022/01/08 12:30:33;;;;;;;16.70;11.00;;;2.30;99.90;;;;;;5020329;28;20276;-67
2022/01/08 12:33:16;;;;;;;19.00;12.47;;;2.20;99.90;;;;;;5020465;28;21037;-63
2022/01/08 12:35:42;;;;;;;20.47;11.60;;;2.40;99.90;;;;;;5021436;28;20421;-63
2022/01/08 12:38:29;;;;;;;18.37;11.23;;;2.40;99.90;;;;;;5021678;28;20283;-64
2022/01/08 12:40:55;;;;;;;26.40;15.00;;;2.30;99.90;;;;;;5025039;28;20262;-63
2022/01/08 12:43:36;;;;;;;23.07;13.87;;;2.20;99.90;;;;;;5024825;28;20231;-68
2022/01/08 12:46:17;;;;;;;36.37;21.10;;;2.30;99.90;;;;;;5024049;28;20184;-66
2022/01/08 12:49:08;;;;;;;18.83;12.30;;;2.20;99.90;;;;;;5027815;28;20185;-65
2022/01/08 12:51:49;;;;;;;19.10;11.93;;;2.10;99.90;;;;;;5049569;28;20239;-65
2022/01/08 12:54:17;;;;;;;18.73;13.07;;;2.20;99.90;;;;;;5025098;28;20645;-63
2022/01/08 12:56:55;;;;;;;24.37;13.97;;;2.20;99.90;;;;;;5020613;28;20193;-64
2022/01/08 12:59:28;;;;;;;28.63;16.00;;;2.30;99.90;;;;;;5022255;28;20189;-65
2022/01/08 13:01:54;;;;;;;31.10;17.20;;;2.20;99.90;;;;;;5025123;28;20240;-65
2022/01/08 13:04:22;;;;;;;28.17;16.47;;;2.30;99.90;;;;;;5022459;28;21304;-65
2022/01/08 13:07:03;;;;;;;22.90;14.00;;;2.40;99.90;;;;;;5022559;28;20185;-67
2022/01/08 13:09:29;;;;;;;23.40;14.17;;;2.50;99.90;;;;;;5020741;28;20185;-64
2022/01/08 13:11:54;;;;;;;22.30;14.47;;;2.50;99.90;;;;;;5023150;28;20543;-63
2022/01/08 13:14:24;;;;;;;26.57;15.20;;;2.50;99.90;;;;;;5020062;28;20188;-65
2022/01/08 13:16:52;;;;;;;25.27;15.40;;;2.50;99.90;;;;;;5019276;28;20554;-64
2022/01/08 13:19:23;;;;;;;30.20;17.80;;;2.50;99.90;;;;;;5022838;28;20213;-66
2022/01/08 13:22:02;;;;;;;24.63;14.97;;;2.60;99.90;;;;;;5021625;28;20530;-64